createdAt,value
2018-12-22T00:01:17.936Z,73.47
2018-12-22T00:06:21.520Z,73.72
2018-12-22T00:11:24.981Z,73.65
2018-12-22T00:16:28.445Z,73.36
2018-12-22T00:21:31.952Z,73.79
2018-12-22T00:26:35.657Z,74.50
2018-12-22T00:31:40.352Z,74.34
2018-12-22T00:36:43.867Z,74.71
2018-12-22T00:41:47.397Z,75.41
2018-12-22T00:46:51.231Z,75.76
2018-12-22T00:52:00.421Z,76.02
2018-12-22T00:57:04.304Z,76.05
2018-12-22T01:02:07.804Z,76.81
2018-12-22T01:07:11.312Z,76.93
2018-12-22T01:12:14.876Z,76.58
2018-12-22T01:17:18.329Z,76.55
2018-12-22T01:22:21.820Z,75.96
2018-12-22T01:27:25.344Z,75.39
2018-12-22T01:32:28.773Z,75.55
2018-12-22T01:37:32.820Z,74.76
2018-12-22T01:42:36.978Z,74.65
2018-12-22T01:47:40.511Z,74.77
2018-12-22T01:52:44.089Z,74.68
2018-12-22T01:57:47.542Z,74.34
2018-12-22T02:02:51.819Z,75.05
2018-12-22T02:07:55.393Z,75.09
2018-12-22T02:12:58.835Z,75.49
2018-12-22T02:18:02.281Z,76.00
2018-12-22T02:23:06.751Z,75.41
2018-12-22T02:28:10.840Z,75.60
2018-12-22T02:33:14.265Z,75.80
2018-12-22T02:38:17.913Z,75.69
2018-12-22T02:43:21.448Z,76.00
2018-12-22T02:48:24.988Z,75.67
2018-12-22T02:53:28.471Z,75.91
2018-12-22T02:58:31.898Z,75.46
2018-12-22T03:03:36.428Z,76.52
2018-12-22T03:08:39.872Z,76.42
2018-12-22T03:13:43.374Z,76.23
2018-12-22T03:18:47.114Z,76.57
2018-12-22T03:23:50.544Z,76.51
2018-12-22T03:28:54.094Z,76.83
2018-12-22T03:33:57.504Z,76.47
2018-12-22T03:39:01.148Z,76.43
2018-12-22T03:44:04.781Z,76.31
2018-12-22T03:49:08.196Z,76.25
2018-12-22T03:54:11.721Z,76.44
2018-12-22T03:59:24.470Z,76.76
2018-12-22T04:04:20.585Z,77.25
2018-12-22T04:09:24.015Z,77.61
2018-12-22T04:14:27.866Z,78.46
2018-12-22T04:19:31.508Z,80.55
2018-12-22T04:24:34.997Z,85.57
2018-12-22T04:29:38.504Z,87.53
2018-12-22T04:34:41.908Z,89.43
2018-12-22T04:39:45.325Z,91.36
2018-12-22T04:44:48.878Z,90.82
2018-12-22T04:49:52.300Z,91.60
2018-12-22T04:54:55.825Z,92.49
2018-12-22T04:59:59.338Z,93.08
2018-12-22T05:05:03.000Z,93.04
2018-12-22T05:10:07.043Z,93.46
2018-12-22T05:15:10.477Z,93.69
2018-12-22T05:20:15.459Z,94.25
2018-12-22T05:25:19.127Z,94.20
2018-12-22T05:30:22.620Z,94.34
2018-12-22T05:35:26.028Z,93.99
2018-12-22T05:40:29.451Z,93.87
2018-12-22T05:45:32.864Z,94.11
2018-12-22T05:50:36.397Z,93.63
2018-12-22T05:55:39.952Z,93.74
2018-12-22T06:00:43.364Z,94.10
2018-12-22T06:05:46.863Z,94.10
2018-12-22T06:10:50.536Z,94.83
2018-12-22T06:15:53.952Z,94.20
2018-12-22T06:20:57.564Z,94.87
2018-12-22T06:26:01.120Z,94.78
2018-12-22T06:31:04.691Z,94.33
2018-12-22T06:36:08.100Z,93.86
2018-12-22T06:41:11.507Z,93.34
2018-12-22T06:46:15.040Z,91.09
2018-12-22T06:51:18.548Z,91.93
2018-12-22T06:56:21.968Z,91.61
2018-12-22T07:01:25.540Z,92.31
2018-12-22T07:06:28.956Z,93.07
2018-12-22T07:11:32.457Z,93.94
2018-12-22T07:16:35.860Z,93.30
2018-12-22T07:21:39.660Z,91.74
2018-12-22T07:26:43.071Z,90.21
2018-12-22T07:31:46.668Z,89.63
2018-12-22T07:36:50.144Z,88.32
2018-12-22T07:41:53.597Z,87.17
2018-12-22T07:46:57.152Z,86.24
2018-12-22T07:52:00.633Z,86.78
2018-12-22T07:57:05.784Z,86.34
2018-12-22T08:02:09.201Z,85.96
2018-12-22T08:07:12.741Z,87.58
2018-12-22T08:12:16.281Z,88.20
2018-12-22T08:17:19.719Z,92.10
2018-12-22T08:22:24.659Z,93.35
2018-12-22T08:27:28.223Z,94.02
2018-12-22T08:32:32.011Z,91.76
2018-12-22T08:37:35.653Z,90.87
2018-12-22T08:42:39.358Z,91.00
2018-12-22T08:47:43.156Z,88.91
2018-12-22T08:52:46.564Z,88.95
2018-12-22T08:57:49.988Z,90.47
2018-12-22T09:02:53.552Z,89.63
2018-12-22T09:07:56.948Z,89.99
2018-12-22T09:13:00.503Z,90.79
2018-12-22T09:18:04.035Z,91.18
2018-12-22T09:23:07.666Z,91.00
2018-12-22T09:28:11.284Z,91.33
2018-12-22T09:33:14.776Z,91.28
2018-12-22T09:38:18.264Z,91.65
2018-12-22T09:43:21.932Z,92.04
2018-12-22T09:48:25.508Z,93.19
2018-12-22T09:53:28.919Z,93.72
2018-12-22T09:58:32.347Z,93.46
2018-12-22T10:03:35.914Z,93.07
2018-12-22T10:08:39.349Z,92.53
2018-12-22T10:13:42.950Z,91.96
2018-12-22T10:18:46.829Z,92.00
2018-12-22T10:23:50.459Z,91.77
2018-12-22T10:28:54.845Z,91.66
2018-12-22T10:33:58.357Z,91.99
2018-12-22T10:39:01.920Z,91.91
2018-12-22T10:44:05.488Z,92.59
2018-12-22T10:49:10.286Z,91.59
2018-12-22T10:54:14.018Z,89.33
2018-12-22T10:59:17.672Z,91.35
2018-12-22T11:04:21.125Z,91.34
2018-12-22T11:09:24.744Z,91.59
2018-12-22T11:14:28.257Z,91.78
2018-12-22T11:19:31.672Z,91.32
2018-12-22T11:24:35.324Z,90.92
2018-12-22T11:29:38.877Z,91.18
2018-12-22T11:34:42.289Z,91.30
2018-12-22T11:39:45.788Z,91.01
2018-12-22T11:44:49.196Z,91.03
2018-12-22T11:49:52.765Z,90.64
2018-12-22T11:54:56.333Z,90.15
2018-12-22T11:59:59.895Z,90.43
2018-12-22T12:05:03.649Z,90.29
2018-12-22T12:10:09.560Z,89.82
2018-12-22T12:15:19.960Z,90.77
2018-12-22T12:20:23.420Z,90.24
2018-12-22T12:25:26.873Z,88.72
2018-12-22T12:30:33.238Z,87.91
2018-12-22T12:35:36.784Z,86.77
2018-12-22T12:40:40.272Z,85.85
2018-12-22T12:45:43.707Z,83.72
2018-12-22T12:50:47.930Z,83.29
2018-12-22T12:55:51.584Z,85.30
2018-12-22T13:00:54.995Z,84.34
2018-12-22T13:05:58.488Z,83.38
2018-12-22T13:11:01.932Z,83.83
2018-12-22T13:16:05.580Z,83.76
2018-12-22T13:21:10.056Z,83.27
2018-12-22T13:26:13.673Z,83.88
2018-12-22T13:31:19.379Z,82.66
2018-12-22T13:36:22.799Z,83.00
2018-12-22T13:41:26.223Z,82.28
2018-12-22T13:46:29.719Z,80.91
2018-12-22T13:51:33.344Z,81.30
2018-12-22T13:56:36.915Z,80.50
2018-12-22T14:01:44.808Z,79.52
2018-12-22T14:06:48.688Z,80.45
2018-12-22T14:11:52.119Z,79.96
2018-12-22T14:17:20.492Z,79.62
2018-12-22T14:22:24.088Z,78.53
2018-12-22T14:27:27.644Z,79.22
2018-12-22T14:32:31.217Z,79.75
2018-12-22T14:37:34.631Z,79.12
2018-12-22T14:42:38.060Z,79.00
2018-12-22T14:47:41.764Z,79.71
2018-12-22T14:52:45.172Z,79.99
2018-12-22T14:57:56.102Z,81.08
2018-12-22T15:02:59.517Z,81.84
2018-12-22T15:08:03.065Z,81.70
2018-12-22T15:13:06.635Z,81.28
2018-12-22T15:18:10.049Z,81.45
2018-12-22T15:23:15.000Z,80.83
2018-12-22T15:28:18.533Z,81.18
2018-12-22T15:33:22.020Z,80.55
2018-12-22T15:38:26.420Z,80.21
2018-12-22T15:43:29.881Z,80.06
2018-12-22T15:48:33.291Z,80.36
2018-12-22T15:53:36.703Z,81.04
2018-12-22T15:58:40.131Z,80.82
2018-12-22T16:03:43.688Z,80.46
2018-12-22T16:08:47.404Z,80.91
2018-12-22T16:13:50.925Z,80.97
2018-12-22T16:18:54.336Z,81.22
2018-12-22T16:23:57.944Z,81.66
2018-12-22T16:29:10.817Z,81.49
2018-12-22T16:34:14.425Z,82.05
2018-12-22T16:39:18.041Z,81.62
2018-12-22T16:44:21.624Z,81.98
2018-12-22T16:49:25.044Z,81.89
2018-12-22T16:54:28.692Z,82.43
2018-12-22T16:59:33.997Z,82.59
2018-12-22T17:04:37.489Z,83.12
2018-12-22T17:09:40.891Z,83.06
2018-12-22T17:14:44.400Z,83.26
2018-12-22T17:19:47.876Z,83.26
2018-12-22T17:25:02.335Z,83.64
2018-12-22T17:30:06.341Z,84.58
2018-12-22T17:35:12.653Z,84.46
2018-12-22T17:40:16.246Z,84.17
2018-12-22T17:45:19.668Z,84.81
2018-12-22T17:50:23.077Z,84.84
2018-12-22T17:55:26.660Z,85.04
2018-12-22T18:00:30.160Z,84.71
2018-12-22T18:05:33.712Z,84.74
2018-12-22T18:10:37.142Z,84.91
2018-12-22T18:15:40.660Z,85.22
2018-12-22T18:20:44.077Z,85.02
2018-12-22T18:25:47.684Z,84.99
2018-12-22T18:30:51.256Z,84.65
2018-12-22T18:35:54.664Z,84.32
2018-12-22T18:40:58.189Z,84.36
2018-12-22T18:46:01.604Z,84.75
2018-12-22T18:51:05.340Z,84.44
2018-12-22T18:56:08.744Z,84.70
2018-12-22T19:01:12.244Z,84.71
2018-12-22T19:06:15.826Z,85.37
2018-12-22T19:11:21.444Z,85.53
2018-12-22T19:16:24.995Z,85.82
2018-12-22T19:21:28.548Z,85.67
2018-12-22T19:26:33.004Z,86.20
2018-12-22T19:31:41.669Z,85.70
2018-12-22T19:36:42.196Z,84.95
2018-12-22T19:41:45.762Z,83.96
2018-12-22T19:46:49.452Z,83.76
2018-12-22T19:51:53.040Z,83.43
2018-12-22T19:56:56.525Z,83.68
2018-12-22T20:02:00.104Z,83.20
2018-12-22T20:07:03.742Z,83.64
2018-12-22T20:12:07.244Z,82.93
2018-12-22T20:17:10.684Z,83.76
2018-12-22T20:22:14.347Z,83.21
2018-12-22T20:27:17.972Z,83.40
2018-12-22T20:32:21.495Z,83.86
2018-12-22T20:37:24.921Z,84.51
2018-12-22T20:42:28.619Z,84.83
2018-12-22T20:47:32.220Z,84.55
2018-12-22T20:52:35.684Z,85.37
2018-12-22T20:57:39.368Z,85.68
2018-12-22T21:02:42.883Z,86.26
2018-12-22T21:07:46.449Z,85.48
2018-12-22T21:12:49.864Z,86.26
2018-12-22T21:17:53.377Z,86.60
2018-12-22T21:22:56.833Z,86.66
2018-12-22T21:28:00.356Z,87.13
2018-12-22T21:33:04.599Z,87.73
2018-12-22T21:38:08.060Z,87.89
2018-12-22T21:43:11.510Z,88.41
2018-12-22T21:48:15.232Z,88.29
2018-12-22T21:53:18.849Z,88.17
2018-12-22T21:58:22.565Z,88.39
2018-12-22T22:03:26.073Z,87.97
2018-12-22T22:08:29.597Z,88.67
2018-12-22T22:13:33.064Z,88.38
2018-12-22T22:18:36.471Z,88.93
2018-12-22T22:23:40.032Z,88.91
2018-12-22T22:28:43.552Z,88.89
2018-12-22T22:33:47.404Z,88.50
2018-12-22T22:38:50.836Z,88.18
2018-12-22T22:43:54.432Z,88.50
2018-12-22T22:48:57.936Z,88.16
2018-12-22T22:54:01.464Z,87.71
2018-12-22T22:59:04.896Z,87.29
2018-12-22T23:04:08.692Z,86.64
2018-12-22T23:09:12.296Z,86.23
2018-12-22T23:14:15.776Z,86.30
2018-12-22T23:19:19.237Z,86.18
2018-12-22T23:24:22.712Z,86.84
2018-12-22T23:29:26.224Z,87.28
2018-12-22T23:34:29.742Z,86.78
2018-12-22T23:39:33.312Z,88.02
2018-12-22T23:44:36.731Z,89.82
2018-12-22T23:54:52.133Z,90.36
2018-12-22T23:59:55.572Z,90.97
